createdAt,value
2023-05-14T00:00:00.621Z,1.1
2023-05-14T00:01:00.601Z,1.1
2023-05-14T00:02:00.684Z,1.1
2023-05-14T00:03:00.752Z,1.1
2023-05-14T00:04:00.722Z,1.1
2023-05-14T00:05:00.648Z,1.1
2023-05-14T00:06:00.614Z,1.1
2023-05-14T00:07:00.610Z,1.1
2023-05-14T00:08:00.610Z,1.1
2023-05-14T00:09:01.135Z,1.1
2023-05-14T00:10:00.634Z,1.1
2023-05-14T00:11:00.604Z,1.1
2023-05-14T00:12:00.633Z,1.1
2023-05-14T00:13:00.657Z,1.1
2023-05-14T00:14:00.660Z,1.1
2023-05-14T00:15:00.631Z,1.1
2023-05-14T00:16:00.692Z,1.1
2023-05-14T00:17:00.619Z,1.1
2023-05-14T00:18:00.760Z,1.1
2023-05-14T00:19:00.745Z,1.1
2023-05-14T00:20:00.629Z,1.1
2023-05-14T00:21:00.657Z,1.1
2023-05-14T00:22:00.652Z,1.1
2023-05-14T00:23:00.672Z,1.1
2023-05-14T00:24:00.612Z,1.1
2023-05-14T00:25:00.628Z,1.1
2023-05-14T00:26:00.625Z,1.1
2023-05-14T00:27:00.624Z,1.1
2023-05-14T00:28:00.666Z,1.1
2023-05-14T00:29:00.644Z,1.1
2023-05-14T00:30:00.663Z,1.1
2023-05-14T00:31:00.675Z,1.1
2023-05-14T00:32:00.643Z,1.1
2023-05-14T00:33:00.680Z,1.1
2023-05-14T00:34:00.647Z,1.1
2023-05-14T00:35:00.643Z,1.1
2023-05-14T00:36:00.633Z,1.1
2023-05-14T00:37:00.645Z,1.1
2023-05-14T00:38:00.639Z,1.1
2023-05-14T00:39:00.644Z,1.1
2023-05-14T00:40:00.678Z,1.1
2023-05-14T00:41:00.648Z,1.1
2023-05-14T00:42:00.651Z,1.1
2023-05-14T00:43:00.646Z,1.1
2023-05-14T00:44:00.647Z,1.1
2023-05-14T00:45:00.650Z,1.1
2023-05-14T00:46:00.648Z,1.1
2023-05-14T00:47:00.810Z,1.1
2023-05-14T00:48:00.781Z,1.1
2023-05-14T00:49:00.654Z,1.1
2023-05-14T00:50:00.654Z,1.1
2023-05-14T00:51:00.664Z,1.1
2023-05-14T00:52:00.651Z,1.1
2023-05-14T00:53:00.653Z,1.1
2023-05-14T00:54:00.649Z,1.1
2023-05-14T00:55:00.660Z,1.1
2023-05-14T00:56:00.677Z,1.1
2023-05-14T00:57:00.657Z,1.1
2023-05-14T00:58:00.664Z,1.1
2023-05-14T00:59:00.681Z,1.1
2023-05-14T01:00:00.775Z,1.1
2023-05-14T01:01:00.777Z,1.1
2023-05-14T01:02:00.663Z,1.1
2023-05-14T01:03:00.716Z,1.1
2023-05-14T01:04:00.833Z,1.1
2023-05-14T01:05:00.673Z,1.1
2023-05-14T01:06:00.667Z,1.1
2023-05-14T01:07:00.665Z,1.1
2023-05-14T01:08:00.656Z,1.1
2023-05-14T01:09:00.656Z,1.1
2023-05-14T01:10:00.635Z,1.1
2023-05-14T01:11:00.601Z,1.1
2023-05-14T01:12:00.579Z,1.1
2023-05-14T01:13:00.557Z,1.1
2023-05-14T01:14:00.511Z,1.1
2023-05-14T01:15:00.500Z,1.1
2023-05-14T01:16:00.534Z,1.1
2023-05-14T01:17:00.423Z,1.1
2023-05-14T01:18:00.413Z,1.1
2023-05-14T01:19:00.390Z,1.1
2023-05-14T01:20:00.420Z,1.1
2023-05-14T01:21:00.304Z,1.1
2023-05-14T01:22:00.317Z,1.1
2023-05-14T01:23:00.311Z,1.1
2023-05-14T01:24:00.332Z,1.1
2023-05-14T01:25:00.318Z,1.1
2023-05-14T01:26:00.327Z,1.1
2023-05-14T01:27:00.334Z,1.1
2023-05-14T01:28:00.326Z,1.1
2023-05-14T01:29:00.355Z,1.1
2023-05-14T01:30:00.348Z,1.1
2023-05-14T01:31:00.345Z,1.1
2023-05-14T01:32:00.413Z,1.1
2023-05-14T01:33:00.442Z,1.1
2023-05-14T01:34:00.328Z,1.1
2023-05-14T01:35:00.374Z,1.1
2023-05-14T01:36:00.356Z,1.1
2023-05-14T01:37:00.343Z,1.1
2023-05-14T01:38:00.337Z,1.1
2023-05-14T01:39:00.330Z,1.1
2023-05-14T01:40:00.374Z,1.1
2023-05-14T01:41:00.340Z,1.1
2023-05-14T01:42:00.333Z,1.1
2023-05-14T01:43:00.393Z,1.1
2023-05-14T01:44:00.346Z,1.1
2023-05-14T01:45:00.334Z,1.1
2023-05-14T01:46:00.419Z,1.1
2023-05-14T01:47:00.336Z,1.1
2023-05-14T01:48:00.412Z,1.1
2023-05-14T01:49:00.337Z,1.1
2023-05-14T01:50:00.342Z,1.1
2023-05-14T01:51:00.364Z,1.1
2023-05-14T01:52:00.360Z,1.1
2023-05-14T01:53:00.354Z,1.1
2023-05-14T01:54:00.352Z,1.1
2023-05-14T01:55:00.344Z,1.1
2023-05-14T01:56:00.341Z,1.1
2023-05-14T01:57:00.379Z,1.1
2023-05-14T01:58:00.350Z,1.1
2023-05-14T01:59:00.356Z,1.1
2023-05-14T02:00:00.372Z,1.1
2023-05-14T02:01:01.760Z,1.1
2023-05-14T02:02:01.768Z,1.1
2023-05-14T02:03:01.748Z,1.1
2023-05-14T02:04:01.746Z,1.1
2023-05-14T02:05:01.730Z,1.1
2023-05-14T02:06:01.748Z,1.1
2023-05-14T02:07:01.738Z,1.1
2023-05-14T02:08:01.741Z,1.1
2023-05-14T02:09:01.740Z,1.1
2023-05-14T02:10:01.758Z,1.1
2023-05-14T02:11:01.756Z,1.1
2023-05-14T02:12:01.746Z,1.1
2023-05-14T02:13:01.742Z,1.1
2023-05-14T02:14:01.740Z,1.1
2023-05-14T02:15:01.731Z,1.1
2023-05-14T02:16:01.776Z,1.1
2023-05-14T02:17:01.740Z,1.1
2023-05-14T02:18:01.858Z,1.1
2023-05-14T02:19:01.864Z,1.1
2023-05-14T02:20:01.746Z,1.1
2023-05-14T02:21:01.749Z,1.1
2023-05-14T02:22:01.761Z,1.1
2023-05-14T02:23:01.745Z,1.1
2023-05-14T02:24:01.794Z,1.1
2023-05-14T02:25:01.750Z,1.1
2023-05-14T02:26:01.749Z,1.1
2023-05-14T02:27:01.755Z,1.1
2023-05-14T02:28:01.749Z,1.1
2023-05-14T02:29:01.753Z,1.1
2023-05-14T02:30:01.824Z,1.1
2023-05-14T02:31:01.811Z,1.1
2023-05-14T02:32:01.760Z,1.1
2023-05-14T02:33:01.838Z,1.1
2023-05-14T02:34:01.794Z,1.1
2023-05-14T02:35:01.760Z,1.1
2023-05-14T02:36:01.780Z,1.1
2023-05-14T02:37:01.770Z,1.1
2023-05-14T02:38:01.762Z,1.1
2023-05-14T02:39:01.770Z,1.1
2023-05-14T02:40:01.855Z,1.1
2023-05-14T02:41:01.786Z,1.1
2023-05-14T02:42:01.782Z,1.1
2023-05-14T02:43:01.777Z,1.1
2023-05-14T02:44:01.775Z,1.1
2023-05-14T02:45:01.827Z,1.1
2023-05-14T02:46:01.784Z,1.1
2023-05-14T02:47:01.831Z,1.1
2023-05-14T02:48:01.833Z,1.1
2023-05-14T02:49:01.775Z,1.1
2023-05-14T02:50:01.827Z,1.1
2023-05-14T02:51:01.773Z,1.1
2023-05-14T02:52:01.776Z,1.1
2023-05-14T02:53:01.793Z,1.1
2023-05-14T02:54:01.781Z,1.1
2023-05-14T02:55:01.784Z,1.1
2023-05-14T02:56:01.805Z,1.1
2023-05-14T02:57:01.792Z,1.1
2023-05-14T02:58:01.807Z,1.1
2023-05-14T02:59:01.809Z,1.1
2023-05-14T03:00:01.815Z,1.1
2023-05-14T03:01:01.888Z,1.1
2023-05-14T03:02:01.904Z,1.1
2023-05-14T03:03:01.824Z,1.1
2023-05-14T03:04:01.810Z,1.1
2023-05-14T03:05:01.810Z,1.1
2023-05-14T03:06:01.812Z,1.1
2023-05-14T03:07:01.817Z,1.1
2023-05-14T03:08:01.812Z,1.1
2023-05-14T03:09:01.820Z,1.1
2023-05-14T03:10:01.857Z,1.1
2023-05-14T03:11:01.807Z,1.1
2023-05-14T03:12:01.808Z,1.1
2023-05-14T03:13:01.813Z,1.1
2023-05-14T03:14:01.821Z,1.1
2023-05-14T03:15:01.825Z,1.1
2023-05-14T03:16:01.827Z,1.1
2023-05-14T03:17:01.856Z,1.1
2023-05-14T03:18:01.857Z,1.1
2023-05-14T03:19:01.853Z,1.1
2023-05-14T03:20:01.896Z,1.1
2023-05-14T03:21:01.823Z,1.1
2023-05-14T03:22:01.821Z,1.1
2023-05-14T03:23:01.818Z,1.1
2023-05-14T03:24:01.879Z,1.1
2023-05-14T03:25:01.828Z,1.1
2023-05-14T03:26:01.839Z,1.2
2023-05-14T03:27:01.831Z,1.5
2023-05-14T03:28:01.838Z,1.7
2023-05-14T03:29:01.842Z,2
2023-05-14T03:30:01.853Z,2.3
2023-05-14T03:31:01.910Z,2.9
2023-05-14T03:32:01.851Z,3.5
2023-05-14T03:33:01.898Z,4.3
2023-05-14T03:34:01.832Z,5
2023-05-14T03:35:01.827Z,5.9
2023-05-14T03:36:01.827Z,6.5
2023-05-14T03:37:01.830Z,7.2
2023-05-14T03:38:01.834Z,7.7
2023-05-14T03:39:01.845Z,8
2023-05-14T03:40:01.837Z,9.2
2023-05-14T03:41:01.850Z,10.4
2023-05-14T03:42:01.834Z,10.4
2023-05-14T03:43:01.840Z,11.2
2023-05-14T03:44:01.848Z,11.6
2023-05-14T03:45:01.863Z,12.8
2023-05-14T03:46:01.861Z,13.9
2023-05-14T03:47:01.864Z,15.3
2023-05-14T03:48:01.894Z,16
2023-05-14T03:49:01.992Z,16.6
2023-05-14T03:50:01.883Z,18.1
2023-05-14T03:51:01.847Z,20.1
2023-05-14T03:52:01.857Z,22.9
2023-05-14T03:53:01.847Z,26.2
2023-05-14T03:54:01.856Z,25
2023-05-14T03:55:01.872Z,25
2023-05-14T03:56:01.849Z,27.8
2023-05-14T03:57:01.854Z,32.1
2023-05-14T03:58:01.892Z,39.8
2023-05-14T03:59:01.868Z,47
2023-05-14T04:00:01.865Z,53
2023-05-14T04:01:01.866Z,56.9
2023-05-14T04:02:01.862Z,56.9
2023-05-14T04:03:01.928Z,52.4
2023-05-14T04:04:02.018Z,48.7
2023-05-14T04:05:01.873Z,45.9
2023-05-14T04:06:01.862Z,44.8
2023-05-14T04:07:01.865Z,48.2
2023-05-14T04:08:01.874Z,53.6
2023-05-14T04:09:01.900Z,56.9
2023-05-14T04:10:04.276Z,59.7
2023-05-14T04:11:01.881Z,63.4
2023-05-14T04:12:01.877Z,66.5
2023-05-14T04:13:01.871Z,71.5
2023-05-14T04:14:01.888Z,76.8
2023-05-14T04:15:01.913Z,77.7
2023-05-14T04:16:01.871Z,79.6
2023-05-14T04:17:01.874Z,79.6
2023-05-14T04:18:01.907Z,84.5
2023-05-14T04:19:01.916Z,87.6
2023-05-14T04:20:01.889Z,87.6
2023-05-14T04:21:01.872Z,89.7
2023-05-14T04:22:01.904Z,89.7
2023-05-14T04:23:01.875Z,98.7
2023-05-14T04:24:01.909Z,101.1
2023-05-14T04:25:01.903Z,108.6
2023-05-14T04:26:01.889Z,113.9
2023-05-14T04:27:01.914Z,125.4
2023-05-14T04:28:01.881Z,138
2023-05-14T04:29:01.903Z,144.7
2023-05-14T04:30:01.888Z,138
2023-05-14T04:31:01.892Z,163.1
2023-05-14T04:32:01.902Z,188.3
2023-05-14T04:33:01.947Z,214.8
2023-05-14T04:34:01.881Z,217.3
2023-05-14T04:35:01.905Z,217.3
2023-05-14T04:36:01.893Z,222.6
2023-05-14T04:37:01.884Z,228
2023-05-14T04:38:01.895Z,236.3
2023-05-14T04:39:01.888Z,244.9
2023-05-14T04:40:01.902Z,244.9
2023-05-14T04:41:01.891Z,256.9
2023-05-14T04:42:01.899Z,279.4
2023-05-14T04:43:01.895Z,296.6
2023-05-14T04:44:01.903Z,318.7
2023-05-14T04:45:01.917Z,338.3
2023-05-14T04:46:02.027Z,359.1
2023-05-14T04:47:01.909Z,381.3
2023-05-14T04:48:01.967Z,409.6
2023-05-14T04:49:01.895Z,440.1
2023-05-14T04:50:01.922Z,478.5
2023-05-14T04:51:01.904Z,502
2023-05-14T04:52:01.903Z,508
2023-05-14T04:53:01.929Z,502
2023-05-14T04:54:01.935Z,478.5
2023-05-14T04:55:01.931Z,419.6
2023-05-14T04:56:01.901Z,461.7
2023-05-14T04:57:01.909Z,484.3
2023-05-14T04:58:01.912Z,376.7
2023-05-14T04:59:01.919Z,303.8
2023-05-14T05:00:01.918Z,286.1
2023-05-14T05:01:01.962Z,289.6
2023-05-14T05:02:01.912Z,276.1
2023-05-14T05:03:02.018Z,276.1
2023-05-14T05:04:01.960Z,296.6
2023-05-14T05:05:01.918Z,372.2
2023-05-14T05:06:01.946Z,381.3
2023-05-14T05:07:01.923Z,381.3
2023-05-14T05:08:01.942Z,404.8
2023-05-14T05:09:02.422Z,404.8
2023-05-14T05:10:01.927Z,395.2
2023-05-14T05:11:01.922Z,414.5
2023-05-14T05:12:01.985Z,419.6
2023-05-14T05:13:01.948Z,496
2023-05-14T05:14:01.945Z,579.4
2023-05-14T05:15:01.941Z,637.6
2023-05-14T05:16:02.027Z,685.1
2023-05-14T05:17:01.939Z,718.6
2023-05-14T05:18:01.986Z,772.1
2023-05-14T05:19:02.016Z,980.7
2023-05-14T05:20:01.940Z,1028.7
2023-05-14T05:21:01.962Z,1066.3
2023-05-14T05:22:01.948Z,1187.5
2023-05-14T05:23:01.948Z,1201.7
2023-05-14T05:24:01.954Z,1275.8
2023-05-14T05:25:01.936Z,1275.8
2023-05-14T05:26:01.956Z,1306.7
2023-05-14T05:27:02.027Z,1260.7
2023-05-14T05:28:01.940Z,1201.7
2023-05-14T05:29:01.947Z,1145.6
2023-05-14T05:30:01.948Z,1053.6
2023-05-14T05:31:01.969Z,980.7
2023-05-14T05:32:01.950Z,1004.4
2023-05-14T05:33:02.014Z,1066.3
2023-05-14T05:34:01.951Z,1105.3
2023-05-14T05:35:01.962Z,1079.1
2023-05-14T05:36:01.958Z,1041.1
2023-05-14T05:37:01.953Z,957.5
2023-05-14T05:38:02.048Z,923.7
2023-05-14T05:39:01.954Z,1028.7
2023-05-14T05:40:01.980Z,1092.1
2023-05-14T05:41:01.952Z,1216.2
2023-05-14T05:42:01.953Z,1291.2
2023-05-14T05:43:01.966Z,1322.4
2023-05-14T05:44:01.952Z,1403.9
2023-05-14T05:45:01.957Z,1403.9
2023-05-14T05:46:01.977Z,1437.9
2023-05-14T05:47:02.072Z,1455.2
2023-05-14T05:48:02.014Z,1472.7
2023-05-14T05:49:01.965Z,1437.9
2023-05-14T05:50:01.985Z,1354.4
2023-05-14T05:51:02.025Z,1354.4
2023-05-14T05:52:01.961Z,1387.2
2023-05-14T05:53:01.977Z,1354.4
2023-05-14T05:54:01.993Z,1260.7
2023-05-14T05:55:01.962Z,1260.7
2023-05-14T05:56:01.968Z,1245.7
2023-05-14T05:57:01.974Z,1245.7
2023-05-14T05:58:01.968Z,1275.8
2023-05-14T05:59:01.975Z,1291.2
2023-05-14T06:00:01.978Z,1338.3
2023-05-14T06:01:01.978Z,1387.2
2023-05-14T06:02:02.034Z,1420.8
2023-05-14T06:03:02.035Z,1508.3
2023-05-14T06:04:01.978Z,1563.4
2023-05-14T06:05:02.052Z,1620.5
2023-05-14T06:06:01.984Z,1679.7
2023-05-14T06:07:02.008Z,1741
2023-05-14T06:08:01.982Z,1783.3
2023-05-14T06:09:01.980Z,1783.3
2023-05-14T06:10:01.985Z,1783.3
2023-05-14T06:11:01.994Z,1848.4
2023-05-14T06:12:01.983Z,1915.9
2023-05-14T06:13:02.001Z,1870.6
2023-05-14T06:14:02.041Z,1870.6
2023-05-14T06:15:01.985Z,1962.2
2023-05-14T06:16:02.133Z,2009.8
2023-05-14T06:17:02.071Z,2108.2
2023-05-14T06:18:02.042Z,2211.5
2023-05-14T06:19:02.125Z,2376
2023-05-14T06:20:02.000Z,2462.8
2023-05-14T06:21:02.003Z,2522.4
2023-05-14T06:22:01.991Z,2492.4
2023-05-14T06:23:02.004Z,2433.5
2023-05-14T06:24:02.013Z,2292.3
2023-05-14T06:25:02.003Z,2133.6
2023-05-14T06:26:02.003Z,1915.9
2023-05-14T06:27:02.026Z,1741
2023-05-14T06:28:02.022Z,1741
2023-05-14T06:29:02.005Z,1699.9
2023-05-14T06:30:02.028Z,1679.7
2023-05-14T06:31:02.017Z,1699.9
2023-05-14T06:32:02.067Z,1783.3
2023-05-14T06:33:02.032Z,1870.6
2023-05-14T06:34:02.029Z,1985.8
2023-05-14T06:35:02.011Z,2058.4
2023-05-14T06:36:02.019Z,2108.2
2023-05-14T06:37:02.021Z,2108.2
2023-05-14T06:38:02.017Z,2211.5
2023-05-14T06:39:02.053Z,2376
2023-05-14T06:40:02.015Z,2646
2023-05-14T06:41:02.020Z,2946.7
2023-05-14T06:42:02.017Z,3054.3
2023-05-14T06:43:02.016Z,3165.8
2023-05-14T06:44:02.015Z,3242.6
2023-05-14T06:45:02.032Z,3281.6
2023-05-14T06:46:02.022Z,3321.1
2023-05-14T06:47:02.045Z,3321.1
2023-05-14T06:48:02.060Z,3361
2023-05-14T06:49:02.046Z,3442.3
2023-05-14T06:50:02.068Z,3401.4
2023-05-14T06:51:02.028Z,3321.1
2023-05-14T06:52:02.030Z,3321.1
2023-05-14T06:53:02.030Z,3242.6
2023-05-14T06:54:02.029Z,3018
2023-05-14T06:55:02.044Z,3165.8
2023-05-14T06:56:02.038Z,3242.6
2023-05-14T06:57:02.023Z,2911.7
2023-05-14T06:58:02.028Z,2677.9
2023-05-14T06:59:02.056Z,2376
2023-05-14T07:00:03.736Z,2211.5
2023-05-14T07:01:02.076Z,2058.4
2023-05-14T07:02:02.052Z,1915.9
2023-05-14T07:03:02.130Z,1659.7
2023-05-14T07:04:02.095Z,1893.1
2023-05-14T07:05:02.041Z,2185.2
2023-05-14T07:06:02.049Z,2108.2
2023-05-14T07:07:02.062Z,1893.1
2023-05-14T07:08:02.048Z,1870.6
2023-05-14T07:09:02.051Z,1870.6
2023-05-14T07:10:02.065Z,2009.8
2023-05-14T07:11:00.394Z,2009.8
2023-05-14T07:12:00.384Z,2492.4
2023-05-14T07:13:00.386Z,2775.6
2023-05-14T07:14:00.374Z,3165.8
2023-05-14T07:15:00.386Z,3401.4
2023-05-14T07:16:00.385Z,3321.1
2023-05-14T07:17:00.465Z,3204.1
2023-05-14T07:18:00.430Z,3321.1
2023-05-14T07:19:00.421Z,3442.3
2023-05-14T07:20:00.402Z,3401.4
2023-05-14T07:21:00.374Z,3442.3
2023-05-14T07:22:00.404Z,3361
2023-05-14T07:23:00.389Z,3281.6
2023-05-14T07:24:00.409Z,3321.1
2023-05-14T07:25:00.430Z,3361
2023-05-14T07:26:00.385Z,3242.6
2023-05-14T07:27:00.434Z,3128.2
2023-05-14T07:28:00.374Z,2982.2
2023-05-14T07:29:00.396Z,3018
2023-05-14T07:30:00.431Z,3165.8
2023-05-14T07:31:00.476Z,3242.6
2023-05-14T07:32:00.388Z,3321.1
2023-05-14T07:33:00.435Z,3525.6
2023-05-14T07:34:00.416Z,3654.5
2023-05-14T07:35:00.484Z,3742.9
2023-05-14T07:36:00.386Z,3788
2023-05-14T07:37:00.415Z,3833.5
2023-05-14T07:38:00.397Z,3973.5
2023-05-14T07:39:00.398Z,4021.3
2023-05-14T07:40:00.421Z,4069.8
2023-05-14T07:41:00.391Z,4069.8
2023-05-14T07:42:00.399Z,3973.5
2023-05-14T07:43:00.413Z,3926.3
2023-05-14T07:44:00.401Z,3973.5
2023-05-14T07:45:00.411Z,4069.8
2023-05-14T07:46:00.431Z,4168.3
2023-05-14T07:47:00.584Z,4118.8
2023-05-14T07:48:00.597Z,4118.8
2023-05-14T07:49:00.416Z,3926.3
2023-05-14T07:50:00.411Z,3833.5
2023-05-14T07:51:00.420Z,3788
2023-05-14T07:52:00.412Z,3654.5
2023-05-14T07:53:00.410Z,3611.1
2023-05-14T07:54:00.399Z,3442.3
2023-05-14T07:55:00.422Z,3018
2023-05-14T07:56:00.410Z,2877.1
2023-05-14T07:57:00.427Z,3401.4
2023-05-14T07:58:00.457Z,3973.5
2023-05-14T07:59:00.428Z,3833.5
2023-05-14T08:00:00.422Z,4118.8
2023-05-14T08:01:00.414Z,4372.4
2023-05-14T08:02:00.449Z,4478.2
2023-05-14T08:03:00.581Z,4532.1
2023-05-14T08:04:00.563Z,4425
2023-05-14T08:05:00.425Z,4320.5
2023-05-14T08:06:00.441Z,3879.6
2023-05-14T08:07:00.412Z,3698.5
2023-05-14T08:08:00.438Z,4168.3
2023-05-14T08:09:00.416Z,4754.3
2023-05-14T08:10:00.456Z,5047.1
2023-05-14T08:11:00.496Z,4869.3
2023-05-14T08:12:00.427Z,4754.3
2023-05-14T08:13:00.431Z,4927.9
2023-05-14T08:14:00.445Z,4118.8
2023-05-14T08:15:00.452Z,4021.3
2023-05-14T08:16:00.433Z,4532.1
2023-05-14T08:17:00.539Z,5169.5
2023-05-14T08:18:00.468Z,5688.3
2023-05-14T08:19:00.522Z,5896.2
2023-05-14T08:20:00.436Z,5896.2
2023-05-14T08:21:02.204Z,5826.2
2023-05-14T08:22:00.452Z,5756.7
2023-05-14T08:23:00.459Z,5688.3
2023-05-14T08:24:00.447Z,5688.3
2023-05-14T08:25:00.449Z,5620.7
2023-05-14T08:26:00.443Z,5553.9
2023-05-14T08:27:00.490Z,5231.6
2023-05-14T08:28:00.462Z,4987.1
2023-05-14T08:29:00.446Z,5231.6
2023-05-14T08:30:00.488Z,4586.8
2023-05-14T08:31:00.500Z,3654.5
2023-05-14T08:32:05.970Z,3788
2023-05-14T08:33:00.481Z,4269.1
2023-05-14T08:34:00.466Z,4532.1
2023-05-14T08:35:00.455Z,4320.5
2023-05-14T08:36:00.521Z,4021.3
2023-05-14T08:37:00.461Z,3568
2023-05-14T08:38:00.464Z,3281.6
2023-05-14T08:39:00.469Z,3525.6
2023-05-14T08:40:00.467Z,3568
2023-05-14T08:41:00.487Z,3525.6
2023-05-14T08:42:00.461Z,4118.8
2023-05-14T08:43:00.460Z,4811.5
2023-05-14T08:44:00.481Z,4927.9
2023-05-14T08:45:00.473Z,4586.8
2023-05-14T08:46:00.456Z,4118.8
2023-05-14T08:47:00.478Z,3788
2023-05-14T08:48:00.607Z,3483.7
2023-05-14T08:49:00.521Z,3281.6
2023-05-14T08:50:00.466Z,3018
2023-05-14T08:51:00.465Z,2809
2023-05-14T08:52:00.478Z,2677.9
2023-05-14T08:53:00.465Z,2404.6
2023-05-14T08:54:00.472Z,2058.4
2023-05-14T08:55:00.467Z,1915.9
2023-05-14T08:56:00.469Z,1893.1
2023-05-14T08:57:00.469Z,2058.4
2023-05-14T08:58:00.475Z,2238.1
2023-05-14T08:59:00.464Z,2404.6
2023-05-14T09:00:00.524Z,2404.6
2023-05-14T09:01:00.473Z,2347.8
2023-05-14T09:02:00.555Z,2265.1
2023-05-14T09:03:00.633Z,2211.5
2023-05-14T09:04:00.498Z,2211.5
2023-05-14T09:05:00.481Z,2108.2
2023-05-14T09:06:00.476Z,1870.6
2023-05-14T09:07:00.484Z,1659.7
2023-05-14T09:08:00.481Z,1508.3
2023-05-14T09:09:00.479Z,1455.2
2023-05-14T09:10:00.513Z,1420.8
2023-05-14T09:11:00.482Z,1455.2
2023-05-14T09:12:00.487Z,1526.4
2023-05-14T09:13:00.482Z,1544.8
2023-05-14T09:14:00.500Z,1544.8
2023-05-14T09:15:00.519Z,1490.4
2023-05-14T09:16:00.511Z,1437.9
2023-05-14T09:17:00.498Z,1437.9
2023-05-14T09:18:00.559Z,1387.2
2023-05-14T09:19:00.518Z,1245.7
2023-05-14T09:20:00.493Z,1105.3
2023-05-14T09:21:00.494Z,1016.5
2023-05-14T09:22:00.493Z,957.5
2023-05-14T09:23:00.503Z,980.7
2023-05-14T09:24:00.503Z,1004.4
2023-05-14T09:25:00.499Z,1053.6
2023-05-14T09:26:00.495Z,1079.1
2023-05-14T09:27:00.528Z,1092.1
2023-05-14T09:28:00.516Z,1145.6
2023-05-14T09:29:00.512Z,1216.2
2023-05-14T09:30:00.511Z,1354.4
2023-05-14T09:31:00.511Z,1526.4
2023-05-14T09:32:00.561Z,1659.7
2023-05-14T09:33:00.595Z,1741
2023-05-14T09:34:00.522Z,1679.7
2023-05-14T09:35:00.521Z,1544.8
2023-05-14T09:36:00.526Z,1420.8
2023-05-14T09:37:00.514Z,1508.3
2023-05-14T09:38:00.514Z,1783.3
2023-05-14T09:39:00.509Z,2034
2023-05-14T09:40:00.532Z,2238.1
2023-05-14T09:41:00.521Z,2433.5
2023-05-14T09:42:00.531Z,2552.8
2023-05-14T09:43:00.534Z,2552.8
2023-05-14T09:44:00.531Z,2492.4
2023-05-14T09:45:00.529Z,2404.6
2023-05-14T09:46:00.528Z,2211.5
2023-05-14T09:47:00.587Z,2083.2
2023-05-14T09:48:00.683Z,2211.5
2023-05-14T09:49:00.543Z,2347.8
2023-05-14T09:50:00.549Z,2583.5
2023-05-14T09:51:01.851Z,2742.6
2023-05-14T09:52:00.521Z,2911.7
2023-05-14T09:53:00.523Z,2946.7
2023-05-14T09:54:00.544Z,3018
2023-05-14T09:55:00.531Z,3165.8
2023-05-14T09:56:00.532Z,3321.1
2023-05-14T09:57:00.538Z,3525.6
2023-05-14T09:58:00.523Z,3833.5
2023-05-14T09:59:00.550Z,4168.3
2023-05-14T10:00:00.543Z,4532.1
2023-05-14T10:01:00.554Z,4811.5
2023-05-14T10:02:00.537Z,4987.1
2023-05-14T10:03:00.625Z,5294.6
2023-05-14T10:04:00.660Z,5620.7
2023-05-14T10:05:00.560Z,5896.2
2023-05-14T10:06:00.551Z,6111.5
2023-05-14T10:07:00.557Z,6259.4
2023-05-14T10:08:00.548Z,6334.7
2023-05-14T10:09:00.547Z,6410.8
2023-05-14T10:10:00.575Z,6566.3
2023-05-14T10:11:00.546Z,6806
2023-05-14T10:12:00.580Z,6970.7
2023-05-14T10:13:00.557Z,7054.5
2023-05-14T10:14:00.562Z,7312.1
2023-05-14T10:15:00.555Z,7312.1
2023-05-14T10:16:00.562Z,7225.2
2023-05-14T10:17:00.575Z,7139.4
2023-05-14T10:18:00.725Z,7139.4
2023-05-14T10:19:00.650Z,7139.4
2023-05-14T10:20:00.561Z,7139.4
2023-05-14T10:21:00.558Z,7139.4
2023-05-14T10:22:00.561Z,7054.5
2023-05-14T10:23:00.565Z,6970.7
2023-05-14T10:24:00.553Z,6806
2023-05-14T10:25:00.594Z,6487.9
2023-05-14T10:26:00.607Z,6806
2023-05-14T10:27:00.577Z,7054.5
2023-05-14T10:28:00.579Z,6970.7
2023-05-14T10:29:00.565Z,7400.4
2023-05-14T10:30:00.563Z,7139.4
2023-05-14T10:31:00.819Z,7225.2
2023-05-14T10:32:00.569Z,7400.4
2023-05-14T10:33:00.641Z,7400.4
2023-05-14T10:34:00.565Z,7489.4
2023-05-14T10:35:00.581Z,7054.5
2023-05-14T10:36:00.593Z,5294.6
2023-05-14T10:37:00.572Z,4927.9
2023-05-14T10:38:00.581Z,5620.7
2023-05-14T10:39:00.581Z,6259.4
2023-05-14T10:40:00.573Z,7054.5
2023-05-14T10:41:00.575Z,7312.1
2023-05-14T10:42:00.577Z,7400.4
2023-05-14T10:43:00.589Z,7400.4
2023-05-14T10:44:00.576Z,7312.1
2023-05-14T10:45:00.584Z,7225.2
2023-05-14T10:46:00.580Z,6887.9
2023-05-14T10:47:00.635Z,6487.9
2023-05-14T10:48:00.687Z,5553.9
2023-05-14T10:49:00.589Z,4869.3
2023-05-14T10:50:00.581Z,4532.1
2023-05-14T10:51:00.634Z,4532.1
2023-05-14T10:52:00.600Z,4754.3
2023-05-14T10:53:00.601Z,4869.3
2023-05-14T10:54:00.583Z,4811.5
2023-05-14T10:55:03.162Z,5107.8
2023-05-14T10:56:00.602Z,5487.9
2023-05-14T10:57:00.596Z,5896.2
2023-05-14T10:58:00.592Z,5688.3
2023-05-14T10:59:00.600Z,5553.9
2023-05-14T11:00:00.630Z,5294.6
2023-05-14T11:01:00.595Z,5294.6
2023-05-14T11:02:00.697Z,5620.7
2023-05-14T11:03:00.676Z,5896.2
2023-05-14T11:04:00.676Z,6806
2023-05-14T11:05:00.620Z,6806
2023-05-14T11:06:00.603Z,7400.4
2023-05-14T11:07:00.610Z,8046.3
2023-05-14T11:08:00.602Z,10467.7
2023-05-14T11:09:00.609Z,8960.7
2023-05-14T11:10:00.601Z,8542.3
2023-05-14T11:11:00.632Z,8542.3
2023-05-14T11:12:00.620Z,8440.8
2023-05-14T11:13:00.618Z,8440.8
2023-05-14T11:14:00.613Z,8645
2023-05-14T11:15:00.611Z,9979
2023-05-14T11:16:06.286Z,8542.3
2023-05-14T11:17:00.670Z,8241
2023-05-14T11:18:00.641Z,8046.3
2023-05-14T11:19:00.665Z,7950.7
2023-05-14T11:20:00.645Z,8241
2023-05-14T11:21:00.712Z,9979
2023-05-14T11:22:00.633Z,8241
2023-05-14T11:23:00.614Z,9513
2023-05-14T11:24:00.617Z,8241
2023-05-14T11:25:00.639Z,5107.8
2023-05-14T11:26:00.652Z,4987.1
2023-05-14T11:27:00.645Z,5967.1
2023-05-14T11:28:00.663Z,5826.2
2023-05-14T11:29:00.652Z,4987.1
2023-05-14T11:30:00.629Z,4372.4
2023-05-14T11:31:00.643Z,4754.3
2023-05-14T11:32:00.652Z,5358.2
2023-05-14T11:33:01.889Z,6410.8
2023-05-14T11:34:00.639Z,8960.7
2023-05-14T11:35:00.645Z,8960.7
2023-05-14T11:36:00.631Z,6334.7
2023-05-14T11:37:00.636Z,5553.9
2023-05-14T11:38:00.638Z,4642
2023-05-14T11:39:00.644Z,4168.3
2023-05-14T11:40:00.645Z,4320.5
2023-05-14T11:41:00.659Z,4642
2023-05-14T11:42:00.643Z,5358.2
2023-05-14T11:43:00.681Z,5756.7
2023-05-14T11:44:00.667Z,6038.9
2023-05-14T11:45:00.647Z,5620.7
2023-05-14T11:46:00.724Z,5756.7
2023-05-14T11:47:00.648Z,6970.7
2023-05-14T11:48:00.722Z,7312.1
2023-05-14T11:49:00.653Z,6970.7
2023-05-14T11:50:00.681Z,7579.5
2023-05-14T11:51:00.658Z,8143.1
2023-05-14T11:52:00.666Z,7950.7
2023-05-14T11:53:00.652Z,6887.9
2023-05-14T11:54:00.678Z,5358.2
2023-05-14T11:55:00.656Z,4869.3
2023-05-14T11:56:00.667Z,5169.5
2023-05-14T11:57:00.660Z,6111.5
2023-05-14T11:58:00.666Z,5620.7
2023-05-14T11:59:00.661Z,4320.5
2023-05-14T12:00:00.667Z,3054.3
2023-05-14T12:01:00.667Z,2211.5
2023-05-14T12:02:00.654Z,1640
2023-05-14T12:03:00.738Z,1472.7
2023-05-14T12:04:01.645Z,1601.3
2023-05-14T12:05:00.689Z,1915.9
2023-05-14T12:06:00.677Z,2347.8
2023-05-14T12:07:00.672Z,2552.8
2023-05-14T12:08:00.683Z,2646
2023-05-14T12:09:00.674Z,2646
2023-05-14T12:10:00.670Z,2646
2023-05-14T12:11:00.712Z,2677.9
2023-05-14T12:12:00.691Z,2710.1
2023-05-14T12:13:00.666Z,2742.6
2023-05-14T12:14:00.673Z,2809
2023-05-14T12:15:00.674Z,2877.1
2023-05-14T12:16:00.821Z,2946.7
2023-05-14T12:17:00.681Z,3018
2023-05-14T12:18:02.644Z,3128.2
2023-05-14T12:19:00.766Z,3204.1
2023-05-14T12:20:00.677Z,3321.1
2023-05-14T12:21:00.682Z,3568
2023-05-14T12:22:00.700Z,3833.5
2023-05-14T12:23:00.703Z,4118.8
2023-05-14T12:24:00.707Z,4532.1
2023-05-14T12:25:00.687Z,4987.1
2023-05-14T12:26:00.681Z,5487.9
2023-05-14T12:27:00.698Z,5967.1
2023-05-14T12:28:00.703Z,6410.8
2023-05-14T12:29:00.693Z,6970.7
2023-05-14T12:30:12.883Z,7139.4
2023-05-14T12:31:00.748Z,7489.4
2023-05-14T12:32:00.688Z,7762.9
2023-05-14T12:33:00.735Z,8143.1
2023-05-14T12:34:00.694Z,8340.5
2023-05-14T12:35:00.712Z,8340.5
2023-05-14T12:36:09.927Z,8241
2023-05-14T12:37:00.695Z,8046.3
2023-05-14T12:38:00.699Z,7856.2
2023-05-14T12:39:00.717Z,7762.9
2023-05-14T12:40:00.693Z,7489.4
2023-05-14T12:41:00.707Z,6970.7
2023-05-14T12:42:00.703Z,6487.9
2023-05-14T12:43:00.704Z,6334.7
2023-05-14T12:44:00.698Z,6334.7
2023-05-14T12:45:00.708Z,6410.8
2023-05-14T12:46:00.735Z,6410.8
2023-05-14T12:47:00.772Z,6185
2023-05-14T12:48:00.784Z,5688.3
2023-05-14T12:49:00.719Z,4987.1
2023-05-14T12:50:00.718Z,4372.4
2023-05-14T12:51:00.719Z,4168.3
2023-05-14T12:52:19.495Z,4168.3
2023-05-14T12:53:00.722Z,4320.5
2023-05-14T12:54:00.708Z,4642
2023-05-14T12:55:00.732Z,4869.3
2023-05-14T12:56:00.720Z,5107.8
2023-05-14T12:57:00.725Z,5358.2